Terminal Aerodrome Forecast
Issued by NWS

Home | Current Version | Previous Version | Text Only | Print | Product List | Glossary On
Versions: 1 2 3 4 5 6 7 8 9 10 11 12 13 14 15 16 17 18 19 20 21 22 23 24 25 26 27 28 29 30 31 32 33 34
000
FTUS43 KGLD 292323
TAFMCK
TAF
KMCK 292323Z 3000/3024 01015G23KT P6SM OVC020
     FM300300 36011KT P6SM OVC020
     FM300600 35011KT P6SM SCT007 OVC015
      TEMPO 3006/3010 BKN007
     FM301000 35011KT P6SM OVC007
     FM301900 36008KT P6SM SCT035 SCT200
     FM302300 05006KT P6SM SCT100=

USA.gov is the U.S. government's official web portal to all federal, state and local government web resources and services.